الصفحة الرئيسية
METAR-TAF:

METAR-TAF

مطار :

ألاموغوردو, نيومكسيكو, الولايات المتحدة

دائرة عرض: 32-50N, خط طول: 105-59W, ارتفاع: 1279 متر

مراقبة الطقس الحالي

تاريخ ووقت الإصدار 23 دقيقة قبل الساعة 09:35UTC
ريح 4 عقدة من الجنوب/الجنوب الشرقي
درجة الحرارة 10°درجة مئوية
الرطوبة 76%
ضغط 1016 hPa
الرؤية: 16.1 كم
سماء صافية

METAR: KALM 220935Z AUTO 15004KT 10SM CLR 10/06 A3001 RMK AO2

زمن: 03:58 (09:58 UTC)


TAF: مفقودة

أرصاد الطقس والتوقعات من أكثر من 4000 مطار (تقارير الطقس للمطار METAR والتنبؤ بالطقس بالمطارTAF).

المحطات المتاحة هي النقط الصفراء والحمراء على الخريطة.

حرك المؤشر فوق النقطة لمعرفة اسم المحطة.

ثم انقر لمعرفة أرصاد وتوقعات الطقس.

لتغيير الخارطة: اضغط على الأزرار الخضراء مع رمز الصليب الأسود للتكبير. على الزر الأخضر مع شرطة للتصغير، أو على الأسهم الخضراء للخرائط المجاورة.


METAR-TAF: